createdAt,value
2023-03-22T00:02:06.534Z,6.35
2023-03-22T00:04:31.297Z,6.60
2023-03-22T00:06:54.641Z,6.40
2023-03-22T00:09:18.173Z,6.13
2023-03-22T00:11:41.506Z,6.40
2023-03-22T00:14:04.784Z,6.28
2023-03-22T00:16:28.387Z,6.50
2023-03-22T00:18:51.716Z,6.30
2023-03-22T00:21:18.259Z,6.38
2023-03-22T00:23:42.158Z,6.40
2023-03-22T00:26:05.653Z,6.90
2023-03-22T00:28:29.054Z,6.90
2023-03-22T00:30:54.891Z,7.40
2023-03-22T00:33:18.219Z,7.25
2023-03-22T00:35:41.728Z,7.13
2023-03-22T00:38:14.176Z,7.57
2023-03-22T00:40:38.800Z,7.45
2023-03-22T00:43:02.732Z,6.30
2023-03-22T00:45:26.970Z,7.28
2023-03-22T00:47:50.225Z,7.30
2023-03-22T00:50:14.854Z,7.15
2023-03-22T00:52:38.121Z,7.60
2023-03-22T00:55:03.089Z,6.82
2023-03-22T00:57:26.453Z,7.63
2023-03-22T00:59:53.858Z,7.18
2023-03-22T01:02:17.521Z,7.35
2023-03-22T01:04:46.592Z,7.30
2023-03-22T01:07:09.918Z,7.40
2023-03-22T01:09:33.864Z,7.25
2023-03-22T01:11:59.341Z,8.43
2023-03-22T01:14:22.620Z,7.45
2023-03-22T01:16:46.165Z,7.82
2023-03-22T01:19:09.428Z,8.00
2023-03-22T01:21:33.030Z,7.93
2023-03-22T01:23:56.294Z,7.57
2023-03-22T01:26:19.588Z,7.78
2023-03-22T01:28:44.292Z,7.65
2023-03-22T01:31:08.539Z,7.30
2023-03-22T01:33:32.212Z,9.30
2023-03-22T01:35:55.954Z,8.32
2023-03-22T01:38:19.555Z,9.32
2023-03-22T01:40:51.035Z,8.15
2023-03-22T01:43:18.104Z,7.95
2023-03-22T01:45:46.186Z,8.10
2023-03-22T01:48:26.088Z,8.10
2023-03-22T01:50:57.404Z,8.05
2023-03-22T01:53:25.300Z,8.77
2023-03-22T01:55:49.640Z,8.70
2023-03-22T01:58:20.527Z,8.02
2023-03-22T02:00:52.645Z,8.35
2023-03-22T02:03:51.061Z,8.80
2023-03-22T02:06:15.811Z,8.18
2023-03-22T02:08:40.721Z,8.00
2023-03-22T02:11:08.985Z,8.18
2023-03-22T02:13:51.841Z,9.32
2023-03-22T02:16:45.015Z,8.32
2023-03-22T02:20:11.147Z,8.50
2023-03-22T02:23:07.237Z,8.68
2023-03-22T02:26:09.689Z,8.93
2023-03-22T02:28:44.450Z,8.50
2023-03-22T02:31:34.938Z,9.68
2023-03-22T02:34:56.981Z,8.77
2023-03-22T02:38:26.182Z,8.10
2023-03-22T02:40:56.141Z,8.55
2023-03-22T02:43:34.144Z,8.52
2023-03-22T02:46:06.705Z,8.60
2023-03-22T02:48:35.764Z,8.55
2023-03-22T02:51:05.537Z,8.13
2023-03-22T02:53:36.402Z,7.97
2023-03-22T02:56:03.880Z,8.30
2023-03-22T02:58:31.063Z,7.78
2023-03-22T03:00:59.430Z,7.82
2023-03-22T03:03:25.432Z,8.20
2023-03-22T03:05:54.024Z,7.60
2023-03-22T03:08:19.406Z,7.68
2023-03-22T03:10:44.165Z,7.22
2023-03-22T03:13:13.285Z,7.20
2023-03-22T03:15:37.047Z,6.75
2023-03-22T03:18:20.395Z,7.40
2023-03-22T03:21:00.291Z,7.30
2023-03-22T03:23:36.060Z,7.75
2023-03-22T03:26:05.898Z,7.35
2023-03-22T03:28:39.319Z,6.68
2023-03-22T03:31:10.299Z,7.78
2023-03-22T03:33:40.148Z,6.80
2023-03-22T03:36:07.480Z,6.85
2023-03-22T03:38:34.032Z,6.78
2023-03-22T03:41:02.238Z,7.53
2023-03-22T03:43:26.911Z,7.68
2023-03-22T03:45:52.556Z,7.05
2023-03-22T03:48:20.655Z,6.72
2023-03-22T03:50:44.316Z,6.63
2023-03-22T03:53:08.613Z,6.70
2023-03-22T03:55:33.079Z,6.90
2023-03-22T03:57:56.437Z,7.65
2023-03-22T04:00:20.897Z,7.25
2023-03-22T04:03:06.804Z,6.32
2023-03-22T04:05:40.688Z,6.47
2023-03-22T04:08:04.067Z,6.35
2023-03-22T04:10:29.566Z,6.15
2023-03-22T04:12:53.037Z,6.45
2023-03-22T04:15:17.391Z,6.32
2023-03-22T04:17:46.553Z,7.13
2023-03-22T04:20:13.917Z,6.38
2023-03-22T04:22:38.459Z,6.32
2023-03-22T04:25:01.869Z,6.78
2023-03-22T04:27:25.917Z,6.95
2023-03-22T04:29:57.979Z,6.13
2023-03-22T04:32:40.200Z,6.47
2023-03-22T04:35:04.558Z,5.95
2023-03-22T04:37:31.544Z,6.55
2023-03-22T04:40:09.302Z,7.03
2023-03-22T04:42:41.576Z,6.32
2023-03-22T04:45:13.148Z,5.97
2023-03-22T04:47:38.740Z,6.47
2023-03-22T04:50:03.972Z,6.55
2023-03-22T04:52:32.768Z,5.50
2023-03-22T04:54:57.953Z,5.75
2023-03-22T04:57:21.252Z,5.85
2023-03-22T04:59:45.281Z,5.85
2023-03-22T05:02:08.593Z,6.18
2023-03-22T05:04:38.652Z,5.95
2023-03-22T05:07:10.491Z,5.70
2023-03-22T05:09:44.381Z,5.40
2023-03-22T05:12:08.574Z,5.07
2023-03-22T05:14:54.834Z,5.25
2023-03-22T05:17:22.949Z,5.15
2023-03-22T05:19:48.549Z,4.63
2023-03-22T05:22:11.980Z,5.03
2023-03-22T05:24:40.739Z,4.55
2023-03-22T05:27:10.950Z,4.63
2023-03-22T05:29:36.921Z,4.82
2023-03-22T05:32:07.258Z,4.88
2023-03-22T05:34:35.598Z,5.47
2023-03-22T05:37:08.456Z,5.00
2023-03-22T05:39:43.401Z,5.32
2023-03-22T05:42:06.995Z,5.15
2023-03-22T05:44:33.791Z,6.03
2023-03-22T05:47:03.231Z,6.10
2023-03-22T05:49:32.308Z,6.10
2023-03-22T05:51:56.048Z,5.80
2023-03-22T05:54:22.080Z,6.28
2023-03-22T05:56:47.275Z,5.85
2023-03-22T05:59:10.641Z,5.60
2023-03-22T06:01:35.453Z,5.93
2023-03-22T06:04:24.870Z,6.50
2023-03-22T06:06:53.860Z,6.38
2023-03-22T06:09:29.234Z,6.57
2023-03-22T06:11:52.893Z,6.28
2023-03-22T06:14:16.928Z,6.07
2023-03-22T06:16:55.833Z,5.72
2023-03-22T06:19:19.475Z,5.70
2023-03-22T06:21:43.992Z,5.68
2023-03-22T06:24:10.287Z,4.55
2023-03-22T06:26:33.639Z,5.18
2023-03-22T06:28:57.027Z,5.22
2023-03-22T06:31:20.504Z,4.63
2023-03-22T06:33:49.740Z,4.13
2023-03-22T06:36:28.615Z,4.43
2023-03-22T06:39:12.346Z,4.03
2023-03-22T06:41:38.541Z,4.25
2023-03-22T06:44:02.575Z,4.07
2023-03-22T06:46:52.238Z,3.67
2023-03-22T06:49:33.999Z,4.05
2023-03-22T06:51:57.534Z,4.10
2023-03-22T06:54:21.499Z,4.15
2023-03-22T06:56:44.904Z,3.40
2023-03-22T06:59:08.165Z,3.97
2023-03-22T07:01:31.504Z,4.15
2023-03-22T07:03:55.272Z,3.33
2023-03-22T07:06:21.894Z,3.83
2023-03-22T07:08:46.879Z,3.92
2023-03-22T07:11:14.001Z,3.45
2023-03-22T07:13:39.797Z,3.10
2023-03-22T07:16:09.847Z,3.55
2023-03-22T07:18:55.907Z,3.47
2023-03-22T07:21:19.345Z,3.55
2023-03-22T07:23:48.979Z,3.50
2023-03-22T07:26:14.532Z,3.30
2023-03-22T07:28:44.488Z,3.28
2023-03-22T07:31:11.877Z,2.70
2023-03-22T07:33:52.620Z,3.58
2023-03-22T07:36:23.640Z,2.58
2023-03-22T07:38:48.294Z,2.70
2023-03-22T07:41:16.244Z,2.40
2023-03-22T07:44:17.767Z,2.75
2023-03-22T07:47:00.397Z,2.92
2023-03-22T07:49:32.938Z,2.65
2023-03-22T07:51:56.233Z,2.58
2023-03-22T07:54:32.991Z,2.65
2023-03-22T07:56:57.463Z,2.63
2023-03-22T07:59:20.896Z,2.28
2023-03-22T08:01:46.391Z,2.90
2023-03-22T08:04:22.424Z,2.45
2023-03-22T08:07:00.050Z,2.05
2023-03-22T08:09:25.714Z,2.13
2023-03-22T08:11:49.120Z,2.83
2023-03-22T08:14:12.705Z,2.28
2023-03-22T08:16:36.592Z,2.22
2023-03-22T08:19:01.210Z,2.20
2023-03-22T08:21:27.395Z,2.15
2023-03-22T08:23:52.351Z,1.70
2023-03-22T08:26:37.620Z,2.25
2023-03-22T08:29:09.577Z,2.65
2023-03-22T08:31:33.768Z,2.05
2023-03-22T08:33:57.059Z,2.03
2023-03-22T08:36:23.789Z,2.17
2023-03-22T08:38:55.032Z,2.20
2023-03-22T08:41:28.484Z,2.70
2023-03-22T08:43:53.219Z,2.03
2023-03-22T08:46:16.616Z,2.47
2023-03-22T08:48:42.314Z,2.20
2023-03-22T08:51:15.756Z,2.55
2023-03-22T08:53:49.100Z,1.98
2023-03-22T08:56:41.800Z,2.50
2023-03-22T08:59:19.492Z,1.95
2023-03-22T09:02:03.031Z,2.78
2023-03-22T09:04:26.466Z,2.97
2023-03-22T09:06:50.222Z,2.10
2023-03-22T09:09:14.599Z,2.67
2023-03-22T09:11:41.292Z,2.60
2023-03-22T09:14:06.737Z,2.60
2023-03-22T09:16:31.658Z,2.58
2023-03-22T09:18:57.169Z,2.30
2023-03-22T09:21:21.805Z,2.50
2023-03-22T09:24:06.039Z,2.38
2023-03-22T09:26:36.969Z,1.98
2023-03-22T09:29:00.703Z,2.15
2023-03-22T09:31:24.880Z,2.35
2023-03-22T09:34:00.864Z,2.97
2023-03-22T09:36:24.298Z,2.08
2023-03-22T09:38:49.995Z,2.53
2023-03-22T09:41:18.554Z,2.35
2023-03-22T09:43:47.557Z,2.15
2023-03-22T09:46:17.367Z,2.10
2023-03-22T09:48:43.717Z,2.45
2023-03-22T09:51:27.692Z,2.20
2023-03-22T09:53:51.065Z,1.92
2023-03-22T09:56:19.085Z,2.60
2023-03-22T09:58:49.861Z,1.75
2023-03-22T10:01:20.977Z,2.60
2023-03-22T10:04:30.081Z,2.33
2023-03-22T10:07:06.812Z,2.30
2023-03-22T10:09:36.644Z,2.35
2023-03-22T10:12:07.997Z,2.03
2023-03-22T10:14:36.791Z,2.03
2023-03-22T10:17:05.637Z,2.20
2023-03-22T10:19:36.379Z,1.98
2023-03-22T10:22:04.098Z,2.72
2023-03-22T10:24:32.658Z,2.63
2023-03-22T10:26:56.465Z,2.17
2023-03-22T10:29:25.460Z,2.30
2023-03-22T10:31:48.827Z,2.33
2023-03-22T10:34:21.690Z,2.05
2023-03-22T10:36:47.705Z,2.13
2023-03-22T10:39:27.107Z,1.90
2023-03-22T10:41:51.034Z,2.05
2023-03-22T10:44:19.353Z,1.92
2023-03-22T10:46:44.366Z,1.92
2023-03-22T10:49:09.051Z,2.00
2023-03-22T10:51:39.921Z,2.40
2023-03-22T10:54:05.608Z,1.60
2023-03-22T10:56:30.291Z,1.67
2023-03-22T10:58:54.039Z,1.98
2023-03-22T11:01:26.480Z,2.17
2023-03-22T11:03:53.227Z,2.20
2023-03-22T11:06:19.400Z,2.45
2023-03-22T11:08:46.732Z,2.40
2023-03-22T11:11:21.106Z,2.00
2023-03-22T11:13:53.099Z,1.73
2023-03-22T11:16:20.284Z,1.95
2023-03-22T11:18:43.747Z,2.25
2023-03-22T11:21:12.088Z,2.20
2023-03-22T11:23:38.531Z,2.05
2023-03-22T11:26:08.164Z,1.92
2023-03-22T11:28:37.653Z,1.67
2023-03-22T11:31:07.835Z,2.13
2023-03-22T11:33:32.075Z,2.00
2023-03-22T11:35:57.940Z,2.10
2023-03-22T11:38:29.467Z,2.28
2023-03-22T11:40:58.269Z,1.45
2023-03-22T11:43:24.814Z,1.70
2023-03-22T11:45:54.133Z,1.85
2023-03-22T11:48:23.359Z,1.65
2023-03-22T11:50:47.582Z,2.20
2023-03-22T11:53:17.319Z,1.95
2023-03-22T11:55:41.032Z,2.10
2023-03-22T11:58:05.852Z,2.13
2023-03-22T12:00:31.912Z,1.98
2023-03-22T12:03:00.498Z,1.80
2023-03-22T12:05:28.237Z,2.05
2023-03-22T12:07:57.414Z,2.00
2023-03-22T12:10:28.041Z,1.92
2023-03-22T12:12:55.365Z,1.70
2023-03-22T12:15:24.402Z,1.63
2023-03-22T12:17:54.647Z,1.67
2023-03-22T12:20:39.487Z,2.00
2023-03-22T12:23:03.619Z,1.88
2023-03-22T12:25:33.206Z,1.88
2023-03-22T12:27:59.771Z,1.75
2023-03-22T12:30:27.447Z,1.95
2023-03-22T12:32:55.823Z,1.88
2023-03-22T12:35:24.022Z,1.75
2023-03-22T12:37:52.994Z,1.60
2023-03-22T12:40:24.664Z,2.10
2023-03-22T12:43:01.687Z,1.77
2023-03-22T12:45:29.348Z,1.90
2023-03-22T12:47:59.285Z,1.83
2023-03-22T12:50:27.480Z,1.80
2023-03-22T12:52:56.657Z,1.65
2023-03-22T12:55:25.442Z,1.80
2023-03-22T12:57:52.353Z,1.80
2023-03-22T13:00:17.701Z,1.70
2023-03-22T13:02:49.038Z,1.50
2023-03-22T13:05:12.689Z,2.08
2023-03-22T13:07:53.691Z,1.80
2023-03-22T13:10:50.042Z,2.00
2023-03-22T13:13:33.738Z,1.90
2023-03-22T13:16:04.280Z,1.92
2023-03-22T13:18:40.047Z,2.13
2023-03-22T13:21:14.993Z,1.95
2023-03-22T13:23:56.515Z,1.88
2023-03-22T13:26:21.446Z,2.15
2023-03-22T13:28:55.966Z,1.90
2023-03-22T13:31:35.393Z,1.90
2023-03-22T13:34:04.055Z,2.03
2023-03-22T13:36:32.056Z,2.15
2023-03-22T13:38:59.179Z,1.95
2023-03-22T13:41:27.772Z,2.00
2023-03-22T13:43:55.795Z,1.98
2023-03-22T13:46:50.741Z,1.80
2023-03-22T13:49:29.682Z,2.03
2023-03-22T13:51:53.928Z,2.13
2023-03-22T13:54:28.679Z,1.98
2023-03-22T13:56:56.985Z,2.05
2023-03-22T13:59:26.920Z,1.95
2023-03-22T14:01:53.822Z,2.03
2023-03-22T14:04:24.530Z,2.20
2023-03-22T14:06:53.709Z,2.05
2023-03-22T14:09:26.689Z,1.63
2023-03-22T14:11:57.176Z,1.90
2023-03-22T14:14:25.825Z,1.80
2023-03-22T14:16:52.076Z,1.58
2023-03-22T14:19:21.617Z,2.00
